Tower City, North Dakota
Current Conditions -  °F | °C
As of 1:35 PM on Thursday 27 Nov 2014 (Local Time) from KBAC Reporting Station
Broken Clouds Broken Clouds  
Wind Chill: -11°   Ceiling: 11000
Heat Index:   Visibility: 10mi
Dew Point: -2°   Wind: 9mph
Humidity: 78%   Direction: 160°SSE
Pressure: 30.27"   Gusts: NA
Location:  46.92°N, 97.67°W
Report Text: KBAC 271935Z AUTO 16008KT 10SM BKN110 M16/M19 A3027 RMK AO2
Loading
Personal Weather Stations






























Interactive Weather Map New forecast layout! Learn more

10-Day Weather Forecast

Advertisements
Track Severe Weather on mobile